Bison, SD (57620)

2:35 PM MDT on August 29, 2014 (GMT -0600)
RAWS SHADEHILL SD US | Change Station
CLOSE
Current Station
Personal Weather Station
Location: Lemmon, SD
Elevation: 2515 ft
Nearby Weather Stations

Elev 2515 ft 45.67 °N, 102.17 °W | Updated 55 minutes ago

Mostly Cloudy
Mostly Cloudy
74 °F
Feels Like 77 °F
N
17
Wind Variable Wind from NNW
Gusts 27.0 mph

Today
High -- | Low -- °F
--% Chance of Precip.
Yesterday
High -- | Low -- °F
Precip. -- in
6:07 AM 7:33 PM
Waxing Crescent, 16% visible
Pressure 29.94 in
Visibility 10.0 miles
Clouds Scattered Clouds 2700 ft
Heat Index 77 °F
Dew Point 56 °F
Humidity 54%
Rainfall 0.00 in
Snow Depth Not available.
UV 7 out of 12
Pollen 9.10 out of 12
Air Quality Not available.
Flu Activity Not available.
METAR KHEI 291853Z AUTO 31013G22KT 10SM SCT027 21/14 A2997 RMK AO2 PK WND 32027/1827 SLP139 T02110139

More Conditions Fewer Conditions

Pressure 29.94 in
Visibility 10.0 miles
Clouds Scattered Clouds 2700 ft
Heat Index 77 °F
Dew Point 56 °F
Humidity 54%
Rainfall 0.00 in
Snow Depth Not available.
UV 7 out of 12
Pollen 9.10 out of 12
Air Quality Not available.
Flu Activity Not available.
METAR KHEI 291853Z AUTO 31013G22KT 10SM SCT027 21/14 A2997 RMK AO2 PK WND 32027/1827 SLP139 T02110139

More Conditions Fewer Conditions

10-Day Weather Forecast

Almanac

Astronomy

Aug. 29, 2014 Rise Set
Actual Time 6:07 AM MDT 7:33 PM MDT
Civil Twilight 5:36 AM MDT 8:03 PM MDT
Nautical Twilight 4:59 AM MDT 8:40 PM MDT
Astronomical Twilight 4:19 AM MDT 9:20 PM MDT
Moon 10:12 AM MDT 9:17 PM MDT
Length of Visible Light 14h 27m
Length of Day
13h 25m
Tomorrow will be 3m 3s shorter.
Waxing Crescent, 16% of the Moon is Illuminated
Today
Waxing Crescent
Sep 2
First Quarter
Sep 8
Full
Sep 15
Last Quarter
Sep 24
New

Today's Extremes

State Highs State Lows

Community

WunderPhotos

Upload Photos

1,748,341 photos uploaded!

Nearby

Snow Depth

Station Depth Elevation
Blind Park 0 in 6890 ft

Earthquake Activity

City Distance Mag. Time & Date
No recent earthquake activity has been reported nearby.
Minimum magnitude displayed is 2.5.

Coastal Water Temperatures

Place Temperature
No Stations Reporting

Nearby Weather Stations